Fairhope, Alabama
Current Conditions -  °F | °C
As of 11:35 PM on Wednesday 26 Nov 2014 (Local Time) from KCQF Reporting Station
Clear Clear  
Wind Chill: 55°   Ceiling: Unl
Heat Index: 55°   Visibility: 10mi
Dew Point: 46°   Wind: 9mph
Humidity: 72%   Direction: 260°W
Pressure: 30.22"   Gusts: NA
Location:  30.54°N, 87.89°W
Report Text: KCQF 270535Z AUTO 26008KT 10SM CLR 13/08 A3022 RMK AO2
Loading
Personal Weather Stations






























Interactive Weather Map New forecast layout! Learn more

10-Day Weather Forecast

Advertisements
Track Severe Weather on mobile